createdAt,value
2018-05-18T00:00:28.512Z,52.03
2018-05-18T00:01:38.254Z,51.93
2018-05-18T00:02:48.260Z,52.22
2018-05-18T00:03:58.269Z,52.51
2018-05-18T00:05:07.484Z,52.89
2018-05-18T00:06:17.235Z,52.89
2018-05-18T00:07:27.259Z,53.36
2018-05-18T00:08:37.014Z,53.27
2018-05-18T00:09:47.078Z,53.84
2018-05-18T00:10:57.085Z,53.75
2018-05-18T00:12:06.563Z,54.03
2018-05-18T00:13:16.576Z,53.94
2018-05-18T00:14:26.314Z,53.75
2018-05-18T00:15:35.878Z,53.65
2018-05-18T00:16:45.089Z,54.03
2018-05-18T00:17:55.099Z,54.03
2018-05-18T00:19:04.577Z,54.13
2018-05-18T00:20:14.328Z,54.13
2018-05-18T00:21:23.803Z,53.75
2018-05-18T00:22:33.559Z,53.94
2018-05-18T00:23:43.034Z,54.22
2018-05-18T00:24:52.775Z,54.22
2018-05-18T00:26:02.515Z,53.94
2018-05-18T00:27:12.256Z,53.84
2018-05-18T00:28:22.007Z,53.84
2018-05-18T00:29:32.021Z,53.94
2018-05-18T00:30:41.225Z,53.46
2018-05-18T00:31:51.243Z,54.13
2018-05-18T00:33:01.260Z,53.46
2018-05-18T00:34:11.019Z,53.84
2018-05-18T00:35:20.227Z,53.94
2018-05-18T00:36:30.319Z,53.84
2018-05-18T00:37:40.095Z,54.03
2018-05-18T00:38:49.834Z,54.22
2018-05-18T00:39:59.942Z,54.32
2018-05-18T00:41:09.791Z,54.69
2018-05-18T00:42:19.262Z,54.89
2018-05-18T00:43:29.276Z,54.41
2018-05-18T00:44:39.285Z,54.69
2018-05-18T00:45:49.293Z,55.24
2018-05-18T00:46:59.308Z,55.33
2018-05-18T00:48:09.333Z,55.62
2018-05-18T00:49:19.073Z,56.19
2018-05-18T00:50:28.822Z,55.62
2018-05-18T00:51:38.841Z,55.71
2018-05-18T00:52:48.847Z,55.43
2018-05-18T00:53:58.858Z,55.71
2018-05-18T00:55:08.872Z,56
2018-05-18T00:56:18.875Z,55.24
2018-05-18T00:57:28.880Z,56
2018-05-18T00:58:38.089Z,56.19
2018-05-18T00:59:47.302Z,56
2018-05-18T01:00:56.776Z,56.29
2018-05-18T01:02:06.255Z,55.9
2018-05-18T01:03:15.997Z,55.81
2018-05-18T01:04:25.402Z,57.14
2018-05-18T01:05:35.052Z,57.24
2018-05-18T01:06:45.070Z,57.43
2018-05-18T01:07:54.540Z,57.24
2018-05-18T01:09:04.292Z,57.43
2018-05-18T01:10:14.300Z,57.24
2018-05-18T01:11:24.311Z,57.24
2018-05-18T01:12:34.321Z,57.33
2018-05-18T01:13:44.328Z,57.43
2018-05-18T01:14:54.428Z,57.62
2018-05-18T01:16:04.168Z,58.09
2018-05-18T01:17:13.914Z,58.09
2018-05-18T01:18:23.928Z,58.18
2018-05-18T01:19:33.676Z,58.09
2018-05-18T01:20:43.416Z,59.23
2018-05-18T01:21:53.425Z,58.85
2018-05-18T01:23:03.173Z,59.2
2018-05-18T01:24:13.196Z,58.83
2018-05-18T01:25:22.933Z,59.01
2018-05-18T01:26:32.673Z,58.83
2018-05-18T01:27:42.420Z,59.58
2018-05-18T01:28:52.425Z,59.58
2018-05-18T01:30:02.445Z,59.96
2018-05-18T01:31:12.455Z,59.77
2018-05-18T01:32:22.462Z,59.68
2018-05-18T01:33:32.467Z,59.96
2018-05-18T01:34:42.204Z,59.68
2018-05-18T01:35:51.679Z,59.77
2018-05-18T01:37:01.690Z,60.44
2018-05-18T01:38:11.162Z,60.25
2018-05-18T01:39:20.898Z,60.25
2018-05-18T01:40:30.912Z,60.53
2018-05-18T01:41:40.653Z,60.44
2018-05-18T01:42:50.210Z,60.25
2018-05-18T01:44:00.220Z,60.25
2018-05-18T01:45:10.225Z,60.44
2018-05-18T01:46:20.245Z,60.35
2018-05-18T01:47:30.267Z,60.63
2018-05-18T01:48:40.009Z,61.48
2018-05-18T01:49:49.751Z,61.29
2018-05-18T01:50:59.225Z,61.1
2018-05-18T01:52:08.430Z,61.58
2018-05-18T01:53:17.903Z,61.48
2018-05-18T01:54:27.376Z,61.58
2018-05-18T01:55:37.382Z,61.58
2018-05-18T01:56:46.891Z,61.68
2018-05-18T01:57:56.961Z,61.77
2018-05-18T01:59:06.718Z,61.68
2018-05-18T02:00:16.726Z,61.29
2018-05-18T02:01:25.930Z,61.29
2018-05-18T02:02:35.401Z,61.77
2018-05-18T02:03:45.139Z,61.96
2018-05-18T02:04:55.150Z,61.87
2018-05-18T02:06:04.359Z,61.65
2018-05-18T02:07:13.826Z,61.87
2018-05-18T02:08:23.843Z,62.24
2018-05-18T02:09:33.311Z,62.43
2018-05-18T02:10:42.788Z,62.53
2018-05-18T02:11:52.798Z,62.43
2018-05-18T02:13:02.803Z,62.15
2018-05-18T02:14:12.836Z,62.21
2018-05-18T02:15:22.845Z,62.69
2018-05-18T02:16:32.588Z,62.59
2018-05-18T02:17:42.383Z,62.5
2018-05-18T02:18:51.948Z,62.69
2018-05-18T02:20:01.952Z,62.59
2018-05-18T02:21:11.694Z,62.88
2018-05-18T02:22:21.436Z,62.5
2018-05-18T02:23:31.181Z,63.35
2018-05-18T02:24:40.920Z,63.35
2018-05-18T02:25:50.933Z,63.35
2018-05-18T02:27:00.939Z,63.64
2018-05-18T02:28:09.879Z,63.35
2018-05-18T02:29:19.888Z,63.92
2018-05-18T02:30:29.364Z,64.11
2018-05-18T02:31:39.484Z,63.92
2018-05-18T02:32:49.499Z,64.3
2018-05-18T02:33:59.520Z,64.69
2018-05-18T02:35:09.544Z,64.4
2018-05-18T02:36:19.557Z,64.49
2018-05-18T02:37:29.623Z,64.78
2018-05-18T02:38:39.666Z,65.16
2018-05-18T02:39:49.408Z,64.87
2018-05-18T02:40:59.432Z,65.16
2018-05-18T02:42:09.184Z,65.25
2018-05-18T02:43:18.654Z,65.16
2018-05-18T02:44:28.393Z,65.92
2018-05-18T02:45:38.133Z,65.82
2018-05-18T02:46:48.144Z,66.49
2018-05-18T02:47:57.621Z,65.22
2018-05-18T02:49:07.373Z,64.97
2018-05-18T02:50:17.118Z,65.73
2018-05-18T02:51:27.150Z,65.25
2018-05-18T02:52:36.898Z,65.63
2018-05-18T02:53:47.049Z,65.88
2018-05-18T02:54:57.072Z,65.25
2018-05-18T02:56:06.813Z,65.73
2018-05-18T02:57:16.561Z,65.82
2018-05-18T02:58:26.567Z,65.92
2018-05-18T02:59:36.316Z,65.03
2018-05-18T03:03:26.846Z,65.16
2018-05-18T03:04:36.601Z,64.97
2018-05-18T03:05:46.649Z,65.03
2018-05-18T03:06:56.675Z,65.79
2018-05-18T03:08:06.424Z,65.16
2018-05-18T03:09:16.520Z,64.59
2018-05-18T03:10:26.545Z,64.21
2018-05-18T03:11:36.559Z,64.3
2018-05-18T03:12:46.589Z,64.59
2018-05-18T03:13:56.066Z,64.11
2018-05-18T03:15:06.082Z,63.73
2018-05-18T03:16:16.090Z,63.73
2018-05-18T03:17:26.103Z,64.11
2018-05-18T03:18:36.110Z,64.3
2018-05-18T03:19:46.124Z,64.37
2018-05-18T03:20:56.229Z,64.08
2018-05-18T03:22:06.049Z,64.78
2018-05-18T03:23:15.530Z,64.78
2018-05-18T03:24:25.003Z,64.87
2018-05-18T03:25:34.483Z,64.37
2018-05-18T03:26:44.221Z,64.69
2018-05-18T03:27:54.229Z,65.25
2018-05-18T03:29:03.969Z,63.83
2018-05-18T03:30:13.714Z,63.83
2018-05-18T03:31:23.453Z,64.3
2018-05-18T03:32:33.932Z,63.92
2018-05-18T03:33:43.404Z,64.69
2018-05-18T03:34:53.141Z,64.69
2018-05-18T03:36:02.614Z,64.02
2018-05-18T03:37:11.822Z,64.78
2018-05-18T03:38:21.560Z,64.59
2018-05-18T03:39:31.032Z,63.92
2018-05-18T03:40:40.515Z,64.69
2018-05-18T03:41:50.258Z,64.4
2018-05-18T03:43:00.266Z,64.11
2018-05-18T03:44:10.011Z,64.59
2018-05-18T03:45:20.027Z,65.35
2018-05-18T03:46:29.764Z,64.69
2018-05-18T03:47:39.238Z,64.59
2018-05-18T03:48:48.978Z,64.69
2018-05-18T03:49:58.831Z,64.02
2018-05-18T03:51:08.306Z,63.64
2018-05-18T03:52:18.310Z,62.4
2018-05-18T03:53:27.527Z,63.64
2018-05-18T03:54:37.271Z,63.45
2018-05-18T03:55:46.477Z,63.39
2018-05-18T03:56:56.485Z,63.35
2018-05-18T03:58:06.250Z,64.14
2018-05-18T03:59:15.725Z,63.57
2018-05-18T04:00:25.223Z,61.87
2018-05-18T04:01:35.228Z,61.87
2018-05-18T04:02:44.707Z,61.87
2018-05-18T04:03:54.713Z,61.96
2018-05-18T04:05:03.916Z,62.53
2018-05-18T04:06:13.653Z,61.87
2018-05-18T04:07:23.127Z,63.57
2018-05-18T04:08:33.138Z,62.24
2018-05-18T04:09:42.884Z,62.43
2018-05-18T04:10:52.628Z,61.96
2018-05-18T04:12:02.389Z,61.58
2018-05-18T04:13:12.397Z,62.53
2018-05-18T04:14:22.403Z,62.53
2018-05-18T04:15:32.148Z,61.96
2018-05-18T04:16:41.355Z,61.77
2018-05-18T04:17:51.363Z,61.77
2018-05-18T04:19:00.837Z,62.05
2018-05-18T04:20:10.309Z,62.24
2018-05-18T04:21:20.318Z,63.39
2018-05-18T04:22:30.067Z,61.68
2018-05-18T04:23:40.084Z,61.96
2018-05-18T04:24:50.158Z,62.34
2018-05-18T04:25:59.898Z,62.62
2018-05-18T04:27:09.733Z,62.72
2018-05-18T04:28:19.738Z,62.24
2018-05-18T04:29:29.229Z,61.77
2018-05-18T04:30:38.976Z,62.24
2018-05-18T04:31:48.981Z,62.15
2018-05-18T04:32:58.988Z,63.01
2018-05-18T04:34:08.477Z,62.81
2018-05-18T04:35:18.218Z,62.91
2018-05-18T04:36:27.966Z,61.68
2018-05-18T04:37:37.703Z,61.39
2018-05-18T04:38:47.709Z,62.24
2018-05-18T04:39:57.712Z,62.53
2018-05-18T04:41:07.456Z,61.96
2018-05-18T04:42:17.459Z,63.48
2018-05-18T04:43:27.199Z,62.81
2018-05-18T04:44:37.207Z,62.24
2018-05-18T04:45:47.219Z,63.39
2018-05-18T04:46:56.966Z,63.95
2018-05-18T04:48:06.435Z,62.62
2018-05-18T04:49:16.496Z,62.72
2018-05-18T04:50:26.241Z,61.77
2018-05-18T04:51:36.246Z,61.77
2018-05-18T04:52:45.987Z,61.71
2018-05-18T04:53:55.727Z,61.58
2018-05-18T04:55:05.732Z,61.71
2018-05-18T04:56:15.475Z,62.37
2018-05-18T04:57:24.945Z,62.75
2018-05-18T04:58:34.691Z,62.37
2018-05-18T04:59:44.697Z,61.61
2018-05-18T05:00:54.731Z,60.18
2018-05-18T05:02:03.936Z,61.32
2018-05-18T05:03:13.683Z,61.23
2018-05-18T05:04:23.693Z,61.13
2018-05-18T05:05:33.526Z,60.57
2018-05-18T05:06:43.626Z,61.23
2018-05-18T05:07:53.637Z,60.47
2018-05-18T05:09:03.644Z,60.28
2018-05-18T05:10:13.118Z,59.05
2018-05-18T05:11:23.130Z,58.95
2018-05-18T05:12:33.009Z,59.99
2018-05-18T05:13:42.958Z,60.85
2018-05-18T05:14:52.703Z,59.42
2018-05-18T05:16:02.185Z,59.71
2018-05-18T05:17:12.208Z,61.23
2018-05-18T05:18:21.963Z,61.71
2018-05-18T05:19:31.977Z,61.42
2018-05-18T05:20:41.990Z,59.9
2018-05-18T05:21:51.725Z,59.23
2018-05-18T05:23:01.199Z,60.57
2018-05-18T05:24:11.210Z,59.99
2018-05-18T05:25:21.224Z,61.04
2018-05-18T05:26:30.965Z,59.9
2018-05-18T05:27:40.441Z,60.47
2018-05-18T05:28:50.183Z,60.28
2018-05-18T05:30:00.191Z,60.38
2018-05-18T05:31:10.203Z,59.52
2018-05-18T05:32:20.213Z,59.83
2018-05-18T05:33:29.965Z,59.45
2018-05-18T05:34:39.444Z,60.47
2018-05-18T05:35:49.461Z,60.5
2018-05-18T05:36:59.465Z,58.98
2018-05-18T05:38:08.671Z,59.74
2018-05-18T05:39:18.683Z,60.28
2018-05-18T05:40:28.703Z,60.12
2018-05-18T05:41:38.447Z,59.83
2018-05-18T05:42:48.465Z,59.93
2018-05-18T05:43:58.475Z,59.36
2018-05-18T05:45:08.213Z,59.64
2018-05-18T05:46:17.963Z,59.45
2018-05-18T05:47:27.975Z,59.17
2018-05-18T05:48:37.996Z,59.17
2018-05-18T05:49:48.011Z,59.17
2018-05-18T05:50:57.494Z,59.17
2018-05-18T05:52:07.337Z,58.88
2018-05-18T05:53:16.812Z,58.4
2018-05-18T05:54:26.563Z,58.31
2018-05-18T05:55:36.312Z,57.84
2018-05-18T05:56:46.055Z,58.5
2018-05-18T05:57:55.802Z,57.93
2018-05-18T05:59:05.556Z,57.67
2018-05-18T06:00:15.307Z,58.59
2018-05-18T06:01:25.415Z,58.31
2018-05-18T06:02:35.427Z,58.31
2018-05-18T06:03:44.911Z,58.31
2018-05-18T06:04:54.929Z,57.77
2018-05-18T06:06:04.697Z,57.96
2018-05-18T06:07:14.777Z,57.39
2018-05-18T06:08:24.817Z,57.29
2018-05-18T06:09:34.829Z,57.48
2018-05-18T06:10:44.575Z,57.67
2018-05-18T06:11:54.666Z,58.34
2018-05-18T06:13:04.163Z,58.34
2018-05-18T06:14:14.251Z,57.39
2018-05-18T06:15:24.089Z,56.82
2018-05-18T06:16:34.126Z,56.72
2018-05-18T06:17:44.167Z,56.72
2018-05-18T06:18:53.904Z,56.92
2018-05-18T06:20:03.644Z,57.39
2018-05-18T06:21:13.385Z,57.2
2018-05-18T06:22:23.398Z,57.29
2018-05-18T06:23:32.871Z,57.2
2018-05-18T06:24:42.882Z,57.29
2018-05-18T06:25:52.899Z,57.1
2018-05-18T06:27:02.908Z,56.15
2018-05-18T06:28:12.662Z,57.01
2018-05-18T06:29:22.408Z,55.96
2018-05-18T06:30:31.881Z,56.44
2018-05-18T06:31:41.626Z,56.53
2018-05-18T06:32:51.645Z,57.13
2018-05-18T06:34:01.657Z,57.13
2018-05-18T06:35:11.673Z,55.77
2018-05-18T06:36:22.417Z,56.34
2018-05-18T06:37:32.174Z,56.15
2018-05-18T06:38:41.654Z,55.77
2018-05-18T06:39:51.673Z,56.34
2018-05-18T06:41:01.418Z,57.2
2018-05-18T06:42:10.625Z,55.58
2018-05-18T06:43:20.365Z,55.39
2018-05-18T06:44:29.976Z,56.15
2018-05-18T06:45:39.452Z,55.58
2018-05-18T06:46:49.648Z,56.05
2018-05-18T06:47:59.890Z,57.58
2018-05-18T06:49:09.100Z,57.2
2018-05-18T06:50:19.104Z,55.29
2018-05-18T06:51:29.112Z,55.29
2018-05-18T06:52:39.000Z,55.2
2018-05-18T06:53:49.229Z,56.53
2018-05-18T06:54:58.979Z,55.77
2018-05-18T06:56:09.011Z,55.1
2018-05-18T06:57:18.490Z,55.2
2018-05-18T06:58:28.227Z,56.53
2018-05-18T06:59:37.717Z,55.77
2018-05-18T07:00:47.727Z,55.49
2018-05-18T07:01:57.738Z,55.2
2018-05-18T07:03:07.221Z,55.29
2018-05-18T07:04:17.237Z,56.24
2018-05-18T07:05:26.985Z,56.63
2018-05-18T07:06:36.200Z,55.87
2018-05-18T07:07:46.306Z,55.49
2018-05-18T07:08:56.062Z,55.99
2018-05-18T07:10:05.871Z,56.37
2018-05-18T07:11:15.621Z,56.09
2018-05-18T07:12:25.642Z,54.66
2018-05-18T07:13:35.412Z,53.42
2018-05-18T07:14:44.890Z,53.99
2018-05-18T07:15:54.639Z,54.47
2018-05-18T07:17:04.120Z,55.42
2018-05-18T07:18:13.891Z,56.18
2018-05-18T07:19:23.470Z,55.32
2018-05-18T07:20:32.955Z,55.13
2018-05-18T07:21:42.429Z,54.94
2018-05-18T07:22:52.471Z,54.11
2018-05-18T07:24:02.622Z,54.21
2018-05-18T07:25:12.373Z,52.4
2018-05-18T07:26:21.851Z,51.45
2018-05-18T07:27:31.872Z,51.61
2018-05-18T07:28:41.615Z,51.35
2018-05-18T07:29:51.087Z,51.73
2018-05-18T07:31:00.938Z,53.7
2018-05-18T07:32:10.950Z,53.44
2018-05-18T07:33:20.425Z,54.02
2018-05-18T07:34:30.441Z,53.92
2018-05-18T07:35:40.450Z,51.54
2018-05-18T07:36:50.456Z,50.21
2018-05-18T07:38:00.480Z,50.49
2018-05-18T07:39:10.226Z,50.68
2018-05-18T07:40:19.697Z,51.54
2018-05-18T07:41:29.441Z,51.76
2018-05-18T07:42:38.954Z,51.66
2018-05-18T07:43:48.998Z,52.61
2018-05-18T07:44:58.961Z,50.99
2018-05-18T07:46:08.453Z,50.32
2018-05-18T07:47:18.458Z,50.9
2018-05-18T07:48:28.199Z,51.56
2018-05-18T07:49:38.217Z,50.9
2018-05-18T07:50:47.965Z,51.76
2018-05-18T07:51:57.976Z,50.32
2018-05-18T07:53:07.463Z,50.23
2018-05-18T07:54:16.803Z,50.83
2018-05-18T07:55:26.540Z,50.63
2018-05-18T07:56:36.559Z,50.83
2018-05-18T07:57:46.039Z,50.35
2018-05-18T07:58:56.052Z,50.83
2018-05-18T08:00:05.794Z,49.21
2018-05-18T08:01:15.544Z,49.02
2018-05-18T08:02:25.564Z,49.68
2018-05-18T08:03:35.038Z,49.4
2018-05-18T08:04:44.534Z,48.73
2018-05-18T08:05:54.297Z,49.68
2018-05-18T08:07:04.308Z,49.68
2018-05-18T08:08:14.330Z,49.21
2018-05-18T08:09:24.344Z,49.13
2018-05-18T08:10:33.825Z,48.66
2018-05-18T08:11:43.308Z,48.85
2018-05-18T08:12:52.783Z,48.85
2018-05-18T08:14:02.262Z,48.18
2018-05-18T08:15:12.197Z,48.94
2018-05-18T08:16:22.044Z,49.13
2018-05-18T08:17:31.851Z,48.75
2018-05-18T08:18:41.860Z,49.13
2018-05-18T08:19:51.072Z,49.04
2018-05-18T08:21:01.096Z,49.04
2018-05-18T08:22:10.036Z,47.99
2018-05-18T08:23:19.784Z,47.32
2018-05-18T08:24:29.529Z,46.94
2018-05-18T08:25:39.272Z,47.68
2018-05-18T08:26:49.023Z,47.78
2018-05-18T08:27:58.773Z,47.97
2018-05-18T08:29:08.782Z,48.63
2018-05-18T08:30:18.800Z,48.35
2018-05-18T08:31:28.815Z,48.73
2018-05-18T08:32:38.563Z,49.4
2018-05-18T08:33:48.578Z,48.92
2018-05-18T08:34:58.588Z,49.02
2018-05-18T08:36:08.602Z,49.59
2018-05-18T08:37:18.620Z,49.02
2018-05-18T08:38:28.392Z,48.92
2018-05-18T08:39:38.407Z,48.54
2018-05-18T08:40:48.521Z,49.49
2018-05-18T08:41:58.534Z,50.16
2018-05-18T08:43:08.283Z,48.73
2018-05-18T08:44:18.127Z,48.92
2018-05-18T08:45:28.293Z,49.49
2018-05-18T08:46:38.041Z,48.83
2018-05-18T08:47:47.519Z,48.54
2018-05-18T08:48:57.269Z,48.16
2018-05-18T08:50:07.095Z,47.61
2018-05-18T08:51:16.856Z,48.54
2018-05-18T08:52:26.432Z,48.18
2018-05-18T08:53:36.183Z,48.18
2018-05-18T08:54:45.670Z,47.03
2018-05-18T08:55:55.688Z,46.73
2018-05-18T08:57:05.707Z,47.2
2018-05-18T08:58:15.185Z,47.58
2018-05-18T08:59:24.932Z,47.87
2018-05-18T09:00:34.640Z,49.04
2018-05-18T09:01:44.852Z,47.99
2018-05-18T09:02:54.872Z,47.99
2018-05-18T09:04:04.620Z,48.28
2018-05-18T09:05:14.366Z,49.9
2018-05-18T09:06:24.144Z,47.8
2018-05-18T09:07:33.889Z,47.8
2018-05-18T09:08:43.365Z,47.8
2018-05-18T09:09:53.211Z,47.99
2018-05-18T09:11:03.225Z,48.75
2018-05-18T09:12:12.703Z,49.42
2018-05-18T09:13:22.760Z,49.13
2018-05-18T09:14:32.777Z,48.47
2018-05-18T09:15:42.256Z,47.71
2018-05-18T09:16:52.047Z,48.18
2018-05-18T09:18:01.252Z,48.47
2018-05-18T09:19:10.747Z,47.8
2018-05-18T09:20:20.768Z,46.94
2018-05-18T09:21:30.509Z,47.8
2018-05-18T09:22:40.532Z,48.57
2018-05-18T09:23:50.017Z,48.39
2018-05-18T09:24:59.780Z,47.25
2018-05-18T09:26:09.789Z,47.82
2018-05-18T09:27:19.539Z,47.73
2018-05-18T09:28:29.014Z,46.87
2018-05-18T09:29:39.024Z,47.03
2018-05-18T09:30:48.775Z,46.18
2018-05-18T09:31:58.785Z,46.11
2018-05-18T09:33:08.805Z,46.39
2018-05-18T09:34:18.744Z,47.82
2018-05-18T09:35:28.231Z,46.68
2018-05-18T09:36:37.718Z,46.3
2018-05-18T09:37:47.465Z,45.15
2018-05-18T09:38:56.949Z,46.01
2018-05-18T09:40:06.437Z,46.01
2018-05-18T09:41:16.179Z,46.2
2018-05-18T09:42:25.942Z,45.65
2018-05-18T09:43:35.698Z,44.6
2018-05-18T09:44:45.179Z,43.17
2018-05-18T09:45:55.197Z,43.93
2018-05-18T09:47:05.219Z,44.31
2018-05-18T09:48:15.234Z,43.07
2018-05-18T09:49:24.713Z,43.74
2018-05-18T09:50:33.930Z,43
2018-05-18T09:51:43.951Z,42.81
2018-05-18T09:52:53.715Z,42.04
2018-05-18T09:54:03.536Z,40.13
2018-05-18T09:55:13.353Z,38.22
2018-05-18T09:56:24.351Z,38.79
2018-05-18T09:57:34.102Z,39.65
2018-05-18T09:58:44.121Z,38.12
2018-05-18T09:59:53.874Z,38.98
2018-05-18T10:01:03.893Z,40.23
2018-05-18T10:02:14.017Z,40.42
2018-05-18T10:03:23.775Z,39.37
2018-05-18T10:04:33.524Z,38.03
2018-05-18T10:05:43.544Z,38.12
2018-05-18T10:06:53.398Z,40.32
2018-05-18T10:08:03.148Z,39.18
2018-05-18T10:09:12.891Z,39.27
2018-05-18T10:10:22.923Z,39.08
2018-05-18T10:11:32.403Z,38.6
2018-05-18T10:12:41.885Z,38.51
2018-05-18T10:13:51.903Z,39.47
2018-05-18T10:15:01.922Z,39.56
2018-05-18T10:16:11.938Z,37.66
2018-05-18T10:17:21.418Z,37.36
2018-05-18T10:18:31.559Z,38.14
2018-05-18T10:19:41.746Z,37.36
2018-05-18T10:20:50.690Z,37.93
2018-05-18T10:21:59.901Z,38.22
2018-05-18T10:23:09.651Z,36.6
2018-05-18T10:24:19.403Z,36.98
2018-05-18T10:25:29.148Z,37.17
2018-05-18T10:26:39.247Z,36.02
2018-05-18T10:27:48.728Z,37.74
2018-05-18T10:28:58.760Z,36.41
2018-05-18T10:30:08.244Z,36.14
2018-05-18T10:31:18.261Z,36.02
2018-05-18T10:32:28.010Z,34.51
2018-05-18T10:33:37.494Z,36.04
2018-05-18T10:34:47.515Z,36.99
2018-05-18T10:35:57.531Z,35.85
2018-05-18T10:37:07.366Z,35.75
2018-05-18T10:38:17.386Z,36.8
2018-05-18T10:39:27.125Z,36.8
2018-05-18T10:40:37.236Z,34.42
2018-05-18T10:41:46.449Z,34.61
2018-05-18T10:42:56.195Z,35.66
2018-05-18T10:44:05.754Z,36.52
2018-05-18T10:45:15.513Z,37.76
2018-05-18T10:46:25.719Z,36.73
2018-05-18T10:47:35.736Z,36.54
2018-05-18T10:48:45.486Z,37.59
2018-05-18T10:49:55.514Z,34.91
2018-05-18T10:51:05.266Z,35.39
2018-05-18T10:52:15.025Z,35.39
2018-05-18T10:53:24.567Z,34.99
2018-05-18T10:54:34.321Z,35.49
2018-05-18T10:55:44.068Z,36.15
2018-05-18T10:56:53.812Z,35.68
2018-05-18T10:58:03.563Z,36.06
2018-05-18T10:59:13.309Z,34.24
2018-05-18T11:00:22.834Z,34.34
2018-05-18T11:01:32.584Z,34.91
2018-05-18T11:02:42.599Z,35.68
2018-05-18T11:03:52.615Z,35.58
2018-05-18T11:05:02.641Z,34.43
2018-05-18T11:06:12.663Z,36.06
2018-05-18T11:07:22.427Z,36.75
2018-05-18T11:08:32.179Z,36.17
2018-05-18T11:09:42.202Z,35.88
2018-05-18T11:10:52.213Z,34.26
2018-05-18T11:12:01.977Z,34.83
2018-05-18T11:13:11.990Z,35.12
2018-05-18T11:14:22.148Z,37.32
2018-05-18T11:15:31.897Z,37.99
2018-05-18T11:16:41.646Z,37.99
2018-05-18T11:17:51.590Z,35.42
2018-05-18T11:19:01.615Z,33.8
2018-05-18T11:20:11.278Z,36
2018-05-18T11:21:21.041Z,38.39
2018-05-18T11:22:31.058Z,38.59
2018-05-18T11:23:41.075Z,38.03
2018-05-18T11:24:51.090Z,37.36
2018-05-18T11:26:00.577Z,38.24
2018-05-18T11:27:10.341Z,37.01
2018-05-18T11:28:19.879Z,35.69
2018-05-18T11:29:29.915Z,34.67
2018-05-18T11:30:39.759Z,33.44
2018-05-18T11:31:48.981Z,32.87
2018-05-18T11:32:58.735Z,32.04
2018-05-18T11:34:08.003Z,31.77
2018-05-18T11:35:17.485Z,31.8
2018-05-18T11:36:27.509Z,31.24
2018-05-18T11:37:36.991Z,30.69
2018-05-18T11:38:46.748Z,29.06
2018-05-18T11:39:56.775Z,29.09
2018-05-18T11:41:05.999Z,29.1
2018-05-18T11:42:16.076Z,27.28
2018-05-18T11:43:26.097Z,26.92
2018-05-18T11:44:36.133Z,25.59
2018-05-18T11:45:46.163Z,25.12
2018-05-18T11:46:55.759Z,23.48
2018-05-18T11:48:05.409Z,24.56
2018-05-18T11:49:15.372Z,23.7
2018-05-18T11:50:25.395Z,22.83
2018-05-18T11:51:35.160Z,22.07
2018-05-18T11:52:44.919Z,21.5
2018-05-18T11:53:54.679Z,21.02
2018-05-18T11:55:04.179Z,20.06
2018-05-18T11:56:14.206Z,20.25
2018-05-18T11:57:23.965Z,20.95
2018-05-18T11:58:33.723Z,19.99
2018-05-18T11:59:43.567Z,20.48
2018-05-18T12:00:53.328Z,18.64
2018-05-18T12:02:03.091Z,18.64
2018-05-18T12:03:12.861Z,17.97
2018-05-18T12:04:22.622Z,17.77
2018-05-18T12:05:32.119Z,18.37
2018-05-18T12:06:41.913Z,17.88
2018-05-18T12:07:51.696Z,17.02
2018-05-18T12:09:01.733Z,17.02
2018-05-18T12:10:11.503Z,15.85
2018-05-18T12:11:21.264Z,15.86
2018-05-18T12:12:31.293Z,15.95
2018-05-18T12:13:40.792Z,16.25
2018-05-18T12:14:50.286Z,16.64
2018-05-18T12:15:59.885Z,14.89
2018-05-18T12:17:09.915Z,16.16
2018-05-18T12:18:19.956Z,15.58
2018-05-18T12:19:29.730Z,15.67
2018-05-18T12:20:39.769Z,14.9
2018-05-18T12:21:49.534Z,14.12
2018-05-18T12:22:58.767Z,14.9
2018-05-18T12:24:08.533Z,13.73
2018-05-18T12:25:18.568Z,13.05
2018-05-18T12:26:28.336Z,12.16
2018-05-18T12:27:38.100Z,12.36
2018-05-18T12:28:47.867Z,13.15
2018-05-18T12:29:57.633Z,12.16
2018-05-18T12:31:06.870Z,12.36
2018-05-18T12:32:16.651Z,11.68
2018-05-18T12:33:26.691Z,11.58
2018-05-18T12:34:36.721Z,11.48
2018-05-18T12:35:46.769Z,11.68
2018-05-18T12:36:56.805Z,10.99
2018-05-18T12:38:06.680Z,11.88
2018-05-18T12:39:17.226Z,11.77
2018-05-18T12:40:26.729Z,11.88
2018-05-18T12:41:36.509Z,9.91
2018-05-18T12:42:46.006Z,10.89
2018-05-18T12:43:55.778Z,11.96
2018-05-18T12:45:05.559Z,11.28
2018-05-18T12:46:15.608Z,11.28
2018-05-18T12:47:25.652Z,11.87
2018-05-18T12:48:35.693Z,11.49
2018-05-18T12:49:45.191Z,11.88
2018-05-18T12:50:55.235Z,10.71
2018-05-18T12:52:05.018Z,11.6
2018-05-18T12:53:14.800Z,11.7
2018-05-18T12:54:24.827Z,11.21
2018-05-18T12:55:34.616Z,10.42
2018-05-18T12:56:44.771Z,10.53
2018-05-18T12:57:54.807Z,9.84
2018-05-18T12:59:04.568Z,10.62
2018-05-18T13:00:14.609Z,10.43
2018-05-18T13:01:24.663Z,9.84
2018-05-18T13:02:34.771Z,9.35
2018-05-18T13:03:44.818Z,9.84
2018-05-18T13:04:54.903Z,9.45
2018-05-18T13:06:04.668Z,9.35
2018-05-18T13:07:14.433Z,10.33
2018-05-18T13:08:24.033Z,10.23
2018-05-18T13:09:34.084Z,10.03
2018-05-18T13:10:44.121Z,9.45
2018-05-18T13:11:53.934Z,9.94
2018-05-18T13:13:03.976Z,9.94
2018-05-18T13:14:14.061Z,9.75
2018-05-18T13:15:24.111Z,9.84
2018-05-18T13:16:33.875Z,10.64
2018-05-18T13:17:43.905Z,9.85
2018-05-18T13:18:53.943Z,9.16
2018-05-18T13:20:03.980Z,9.36
2018-05-18T13:21:14.020Z,9.56
2018-05-18T13:22:24.055Z,9.07
2018-05-18T13:23:33.824Z,8.97
2018-05-18T13:24:43.590Z,9.27
2018-05-18T13:25:53.621Z,9.38
2018-05-18T13:27:03.390Z,9.28
2018-05-18T13:28:13.170Z,9.18
2018-05-18T13:29:22.675Z,9.28
2018-05-18T13:30:32.536Z,8.79
2018-05-18T13:31:42.487Z,9.08
2018-05-18T13:32:52.269Z,9.18
2018-05-18T13:34:02.032Z,8.89
2018-05-18T13:35:11.545Z,8.59
2018-05-18T13:36:20.776Z,8.98
2018-05-18T13:37:30.819Z,8.59
2018-05-18T13:38:41.153Z,8.97
2018-05-18T13:39:51.778Z,9.08
2018-05-18T13:41:01.594Z,8.48
2018-05-18T13:42:11.376Z,8.78
2018-05-18T13:43:21.200Z,8.88
2018-05-18T13:44:31.233Z,8.69
2018-05-18T13:45:41.326Z,8.49
2018-05-18T13:46:51.360Z,8.2
2018-05-18T13:48:01.398Z,8.49
2018-05-18T13:49:11.432Z,8.98
2018-05-18T13:50:20.931Z,8.39
2018-05-18T13:51:30.968Z,8.78
2018-05-18T13:52:41.053Z,9.47
2018-05-18T13:53:50.822Z,8.78
2018-05-18T13:55:00.586Z,8.69
2018-05-18T13:56:10.084Z,8.69
2018-05-18T13:57:20.306Z,8.1
2018-05-18T13:58:30.080Z,8.79
2018-05-18T13:59:39.576Z,8.7
2018-05-18T14:00:49.341Z,8.59
2018-05-18T14:01:59.172Z,8.89
2018-05-18T14:03:08.404Z,9.09
2018-05-18T14:04:17.910Z,8.5
2018-05-18T14:05:27.678Z,8.11
2018-05-18T14:06:37.451Z,7.81
2018-05-18T14:07:47.217Z,8.01
2018-05-18T14:08:56.985Z,8.21
2018-05-18T14:10:06.758Z,7.12
2018-05-18T14:11:16.527Z,8.21
2018-05-18T14:12:26.293Z,9
2018-05-18T14:13:36.067Z,8.51
2018-05-18T14:14:46.105Z,8.31
2018-05-18T14:15:56.134Z,7.82
2018-05-18T14:17:06.195Z,7.52
2018-05-18T14:18:16.341Z,7.72
2018-05-18T14:19:26.384Z,7.81
2018-05-18T14:20:35.893Z,7.32
2018-05-18T14:21:45.661Z,7.52
2018-05-18T14:22:55.697Z,6.92
2018-05-18T14:24:05.462Z,7.21
2018-05-18T14:25:14.981Z,6.82
2018-05-18T14:26:25.167Z,7.62
2018-05-18T14:27:35.467Z,6.23
2018-05-18T14:28:45.500Z,6.72
2018-05-18T14:29:55.278Z,6.32
2018-05-18T14:31:04.786Z,7.1
2018-05-18T14:32:14.021Z,7.7
2018-05-18T14:33:24.195Z,7.6
2018-05-18T14:34:34.229Z,7.6
2018-05-18T14:35:44.269Z,7.12
2018-05-18T14:36:54.305Z,6.52
2018-05-18T14:38:04.715Z,6.81
2018-05-18T14:39:14.515Z,7.21
2018-05-18T14:40:24.556Z,7.01
2018-05-18T14:41:34.319Z,6.92
2018-05-18T14:42:44.100Z,7.21
2018-05-18T14:43:53.957Z,6.92
2018-05-18T14:45:04.062Z,7.42
2018-05-18T14:46:14.102Z,6.72
2018-05-18T14:47:24.142Z,7.21
2018-05-18T14:48:33.906Z,7.02
2018-05-18T14:49:43.410Z,6.72
2018-05-18T14:50:53.185Z,6.82
2018-05-18T14:52:02.422Z,7.41
2018-05-18T14:53:11.920Z,7.11
2018-05-18T14:54:21.687Z,6.41
2018-05-18T14:55:30.916Z,8.39
2018-05-18T14:56:40.677Z,7.9
2018-05-18T14:57:50.438Z,7.21
2018-05-18T14:59:00.213Z,8
2018-05-18T15:00:10.252Z,7.51
2018-05-18T15:01:20.293Z,7.42
2018-05-18T15:02:30.059Z,7.51
2018-05-18T15:03:39.830Z,7.21
2018-05-18T15:04:49.064Z,7.21
2018-05-18T15:05:59.095Z,7.8
2018-05-18T15:07:08.872Z,7.12
2018-05-18T15:08:18.906Z,7.6
2018-05-18T15:09:28.679Z,7.41